createdAt,value
2019-04-06T00:01:32.302Z,3.90
2019-04-06T00:04:01.670Z,3.90
2019-04-06T00:06:30.636Z,3.90
2019-04-06T00:08:59.582Z,3.90
2019-04-06T00:11:28.513Z,4.00
2019-04-06T00:13:57.580Z,4.00
2019-04-06T00:16:26.478Z,3.90
2019-04-06T00:18:55.716Z,3.90
2019-04-06T00:21:25.031Z,3.90
2019-04-06T00:23:54.311Z,3.90
2019-04-06T00:26:23.558Z,3.90
2019-04-06T00:28:53.152Z,3.80
2019-04-06T00:31:38.144Z,3.80
2019-04-06T00:34:07.511Z,3.80
2019-04-06T00:36:36.439Z,3.80
2019-04-06T00:39:13.439Z,3.80
2019-04-06T00:41:42.910Z,3.70
2019-04-06T00:44:12.462Z,3.70
2019-04-06T00:46:41.570Z,3.60
2019-04-06T00:49:10.507Z,3.60
2019-04-06T00:51:39.768Z,3.50
2019-04-06T00:54:08.919Z,3.50
2019-04-06T00:56:38.125Z,3.50
2019-04-06T00:59:06.991Z,3.50
2019-04-06T01:01:35.982Z,3.50
2019-04-06T01:04:05.022Z,3.50
2019-04-06T01:06:33.925Z,3.50
2019-04-06T01:09:03.494Z,3.50
2019-04-06T01:11:32.634Z,3.50
2019-04-06T01:14:02.259Z,3.50
2019-04-06T01:16:31.570Z,3.50
2019-04-06T01:19:01.244Z,3.50
2019-04-06T01:21:30.290Z,3.40
2019-04-06T01:23:59.194Z,3.30
2019-04-06T01:26:28.505Z,3.40
2019-04-06T01:28:57.961Z,3.40
2019-04-06T01:31:26.785Z,3.40
2019-04-06T01:33:58.821Z,3.40
2019-04-06T01:36:27.427Z,3.30
2019-04-06T01:38:56.235Z,3.20
2019-04-06T01:41:25.239Z,3.20
2019-04-06T01:43:54.293Z,3.20
2019-04-06T01:46:23.356Z,3.20
2019-04-06T01:48:52.713Z,3.20
2019-04-06T01:51:22.221Z,3.20
2019-04-06T01:53:51.448Z,3.20
2019-04-06T01:56:20.588Z,3.20
2019-04-06T01:58:50.036Z,3.10
2019-04-06T02:01:24.009Z,3.10
2019-04-06T02:03:53.229Z,3.10
2019-04-06T02:06:22.749Z,3.00
2019-04-06T02:08:52.304Z,3.00
2019-04-06T02:11:21.080Z,3.00
2019-04-06T02:13:51.488Z,3.00
2019-04-06T02:16:20.890Z,3.00
2019-04-06T02:18:50.607Z,3.00
2019-04-06T02:21:19.479Z,3.00
2019-04-06T02:23:48.421Z,2.90
2019-04-06T02:26:29.150Z,3.00
2019-04-06T02:28:49.211Z,2.90
2019-04-06T02:31:26.502Z,3.00
2019-04-06T02:34:27.119Z,3.00
2019-04-06T02:37:05.623Z,3.00
2019-04-06T02:39:51.696Z,3.00
2019-04-06T02:42:25.289Z,3.00
2019-04-06T02:44:55.196Z,3.00
2019-04-06T02:47:24.695Z,3.00
2019-04-06T02:49:54.020Z,3.00
2019-04-06T02:52:23.853Z,3.00
2019-04-06T02:54:53.601Z,2.90
2019-04-06T02:57:23.350Z,2.90
2019-04-06T02:59:52.613Z,2.90
2019-04-06T03:02:21.893Z,2.90
2019-04-06T03:04:51.289Z,2.90
2019-04-06T03:07:20.663Z,2.90
2019-04-06T03:09:51.178Z,2.80
2019-04-06T03:12:20.240Z,2.80
2019-04-06T03:14:49.370Z,2.70
2019-04-06T03:17:18.677Z,2.70
2019-04-06T03:19:48.100Z,2.60
2019-04-06T03:22:17.563Z,2.50
2019-04-06T03:24:48.166Z,2.50
2019-04-06T03:27:17.763Z,2.60
2019-04-06T03:29:57.316Z,2.60
2019-04-06T03:32:18.357Z,2.60
2019-04-06T03:34:48.474Z,2.60
2019-04-06T03:37:18.276Z,2.50
2019-04-06T03:39:47.135Z,2.50
2019-04-06T03:42:16.267Z,2.50
2019-04-06T03:44:45.589Z,2.50
2019-04-06T03:47:14.980Z,2.50
2019-04-06T03:49:44.301Z,2.50
2019-04-06T03:52:13.368Z,2.50
2019-04-06T03:54:42.443Z,2.60
2019-04-06T03:57:15.929Z,2.60
2019-04-06T03:59:43.024Z,2.60
2019-04-06T04:02:12.799Z,2.60
2019-04-06T04:04:41.885Z,2.60
2019-04-06T04:07:11.482Z,2.60
2019-04-06T04:09:40.803Z,2.60
2019-04-06T04:12:09.658Z,2.60
2019-04-06T04:14:38.740Z,2.60
2019-04-06T04:17:08.139Z,2.60
2019-04-06T04:19:37.417Z,2.60
2019-04-06T04:22:06.498Z,2.60
2019-04-06T04:24:36.126Z,2.40
2019-04-06T04:27:05.376Z,2.30
2019-04-06T04:29:34.769Z,2.20
2019-04-06T04:32:04.264Z,2.10
2019-04-06T04:34:33.314Z,2.10
2019-04-06T04:37:02.446Z,2.10
2019-04-06T04:39:31.784Z,2.10
2019-04-06T04:42:00.836Z,2.10
2019-04-06T04:44:30.173Z,2.00
2019-04-06T04:46:58.990Z,2.00
2019-04-06T04:49:28.339Z,2.00
2019-04-06T04:51:58.037Z,1.90
2019-04-06T04:54:27.564Z,1.90
2019-04-06T04:56:56.489Z,1.90
2019-04-06T04:59:25.463Z,1.80
2019-04-06T05:01:54.789Z,1.80
2019-04-06T05:04:24.441Z,1.80
2019-04-06T05:06:53.811Z,1.80
2019-04-06T05:09:22.667Z,1.90
2019-04-06T05:11:51.555Z,1.90
2019-04-06T05:15:06.713Z,1.90
2019-04-06T05:17:35.852Z,1.80
2019-04-06T05:20:06.019Z,1.80
2019-04-06T05:22:35.311Z,1.80
2019-04-06T05:25:05.607Z,1.80
2019-04-06T05:27:35.005Z,1.90
2019-04-06T05:30:04.703Z,2.00
2019-04-06T05:32:33.520Z,2.10
2019-04-06T05:35:02.790Z,2.30
2019-04-06T05:37:32.157Z,2.40
2019-04-06T05:40:01.247Z,2.50
2019-04-06T05:42:30.091Z,2.50
2019-04-06T05:44:59.589Z,2.60
2019-04-06T05:47:28.600Z,2.60
2019-04-06T05:49:57.693Z,2.60
2019-04-06T05:52:27.311Z,2.70
2019-04-06T05:54:56.689Z,2.70
2019-04-06T05:57:26.064Z,2.80
2019-04-06T05:59:55.937Z,2.90
2019-04-06T06:02:25.055Z,2.90
2019-04-06T06:04:54.092Z,3.10
2019-04-06T06:07:23.527Z,3.20
2019-04-06T06:09:52.629Z,3.30
2019-04-06T06:12:21.940Z,3.40
2019-04-06T06:14:50.861Z,3.40
2019-04-06T06:17:20.606Z,3.50
2019-04-06T06:19:49.760Z,3.60
2019-04-06T06:22:19.360Z,3.70
2019-04-06T06:24:49.533Z,3.80
2019-04-06T06:27:18.696Z,4.00
2019-04-06T06:29:47.983Z,4.10
2019-04-06T06:32:17.278Z,4.30
2019-04-06T06:34:46.655Z,4.40
2019-04-06T06:37:15.578Z,4.40
2019-04-06T06:39:45.165Z,4.50
2019-04-06T06:42:14.485Z,4.60
2019-04-06T06:44:43.526Z,4.70
2019-04-06T06:47:12.937Z,4.80
2019-04-06T06:49:42.083Z,4.90
2019-04-06T06:52:10.883Z,5.00
2019-04-06T06:54:40.039Z,5.20
2019-04-06T06:57:08.943Z,5.30
2019-04-06T06:59:38.039Z,5.40
2019-04-06T07:02:07.098Z,5.60
2019-04-06T07:04:36.694Z,5.70
2019-04-06T07:07:06.413Z,5.80
2019-04-06T07:09:35.472Z,6.10
2019-04-06T07:12:04.457Z,6.30
2019-04-06T07:14:33.556Z,6.50
2019-04-06T07:17:02.331Z,6.80
2019-04-06T07:19:31.446Z,7.00
2019-04-06T07:22:00.586Z,7.10
2019-04-06T07:24:29.416Z,7.20
2019-04-06T07:26:58.579Z,7.40
2019-04-06T07:29:28.150Z,7.60
2019-04-06T07:31:57.461Z,7.80
2019-04-06T07:34:26.593Z,8.00
2019-04-06T07:36:55.923Z,8.10
2019-04-06T07:39:25.519Z,8.30
2019-04-06T07:41:54.824Z,8.40
2019-04-06T07:44:23.629Z,8.50
2019-04-06T07:46:52.730Z,8.60
2019-04-06T07:49:24.763Z,8.70
2019-04-06T07:51:54.404Z,8.90
2019-04-06T07:54:23.780Z,9.00
2019-04-06T07:56:54.430Z,9.20
2019-04-06T07:59:26.818Z,9.40
2019-04-06T08:01:56.477Z,9.50
2019-04-06T08:04:25.819Z,9.70
2019-04-06T08:06:55.477Z,9.90
2019-04-06T08:09:24.494Z,10.10
2019-04-06T08:11:54.290Z,10.20
2019-04-06T08:14:23.889Z,10.40
2019-04-06T08:16:52.734Z,10.60
2019-04-06T08:19:22.329Z,10.70
2019-04-06T08:21:51.389Z,10.90
2019-04-06T08:24:20.705Z,11.10
2019-04-06T08:26:49.461Z,11.20
2019-04-06T08:29:19.432Z,11.50
2019-04-06T08:31:49.073Z,11.50
2019-04-06T08:34:18.695Z,11.70
2019-04-06T08:36:48.044Z,11.90
2019-04-06T08:39:17.077Z,12.10
2019-04-06T08:41:46.559Z,12.30
2019-04-06T08:44:15.539Z,12.40
2019-04-06T08:46:44.380Z,12.60
2019-04-06T08:49:13.637Z,12.80
2019-04-06T08:51:43.305Z,13.00
2019-04-06T08:54:12.888Z,13.00
2019-04-06T08:56:41.797Z,13.10
2019-04-06T08:59:13.176Z,13.30
2019-04-06T09:01:41.294Z,13.40
2019-04-06T09:04:10.100Z,13.70
2019-04-06T09:06:39.205Z,14.00
2019-04-06T09:09:08.381Z,14.20
2019-04-06T09:11:37.619Z,14.50
2019-04-06T09:14:06.694Z,14.60
2019-04-06T09:16:36.228Z,14.90
2019-04-06T09:19:05.335Z,14.80
2019-04-06T09:21:34.551Z,14.90
2019-04-06T09:24:04.081Z,15.10
2019-04-06T09:26:33.160Z,15.30
2019-04-06T09:29:02.393Z,15.50
2019-04-06T09:31:31.582Z,15.50
2019-04-06T09:34:01.204Z,15.60
2019-04-06T09:36:30.273Z,15.50
2019-04-06T09:38:59.553Z,15.60
2019-04-06T09:41:28.377Z,15.40
2019-04-06T09:43:57.812Z,15.30
2019-04-06T09:46:59.030Z,15.20
2019-04-06T09:49:39.216Z,15.10
2019-04-06T09:52:24.095Z,15.40
2019-04-06T09:54:59.009Z,15.40
2019-04-06T09:57:45.071Z,15.20
2019-04-06T10:00:43.300Z,15.10
2019-04-06T10:03:37.325Z,15.20
2019-04-06T10:06:25.209Z,15.40
2019-04-06T10:09:16.525Z,15.60
2019-04-06T10:12:04.454Z,16.00
2019-04-06T10:14:43.842Z,15.90
2019-04-06T10:17:41.358Z,16.10
2019-04-06T10:20:44.908Z,16.30
2019-04-06T10:23:39.436Z,16.80
2019-04-06T10:26:31.035Z,17.00
2019-04-06T10:29:28.872Z,17.10
2019-04-06T10:32:06.741Z,17.30
2019-04-06T10:34:51.049Z,16.90
2019-04-06T10:37:51.636Z,16.50
2019-04-06T10:40:32.904Z,16.40
2019-04-06T10:43:21.964Z,16.20
2019-04-06T10:45:57.997Z,16.10
2019-04-06T10:48:32.898Z,16.40
2019-04-06T10:51:13.025Z,16.70
2019-04-06T10:53:59.849Z,16.80
2019-04-06T10:56:38.796Z,17.00
2019-04-06T10:59:39.255Z,17.30
2019-04-06T11:02:26.670Z,17.60
2019-04-06T11:05:14.630Z,17.60
2019-04-06T11:08:03.142Z,17.90
2019-04-06T11:11:03.346Z,18.40
2019-04-06T11:13:50.461Z,18.60
2019-04-06T11:16:50.672Z,18.60
2019-04-06T11:19:38.134Z,18.80
2019-04-06T11:22:17.658Z,19.10
2019-04-06T11:25:05.149Z,19.00
2019-04-06T11:27:51.936Z,18.90
2019-04-06T11:30:43.077Z,19.00
2019-04-06T11:33:19.878Z,19.10
2019-04-06T11:36:20.844Z,18.90
2019-04-06T11:39:21.192Z,19.00
2019-04-06T11:42:01.248Z,19.40
2019-04-06T11:44:49.144Z,19.50
2019-04-06T11:47:35.962Z,19.60
2019-04-06T11:50:13.926Z,19.70
2019-04-06T11:52:52.372Z,19.60
2019-04-06T11:55:39.390Z,19.50
2019-04-06T11:58:14.817Z,19.30
2019-04-06T12:01:01.331Z,18.50
2019-04-06T12:03:41.227Z,18.30
2019-04-06T12:06:21.629Z,18.20
2019-04-06T12:09:15.664Z,18.00
2019-04-06T12:12:03.988Z,17.80
2019-04-06T12:14:48.300Z,17.60
2019-04-06T12:17:37.213Z,17.40
2019-04-06T12:20:19.116Z,17.00
2019-04-06T12:22:56.970Z,17.00
2019-04-06T12:25:51.477Z,17.00
2019-04-06T12:28:39.643Z,17.20
2019-04-06T12:31:30.993Z,17.70
2019-04-06T12:34:12.476Z,18.20
2019-04-06T12:36:53.297Z,18.40
2019-04-06T12:39:30.424Z,18.90
2019-04-06T12:42:17.943Z,19.30
2019-04-06T12:45:04.839Z,19.60
2019-04-06T12:47:51.828Z,19.40
2019-04-06T12:50:38.879Z,19.70
2019-04-06T12:53:26.100Z,19.80
2019-04-06T12:56:26.691Z,20.10
2019-04-06T12:59:03.318Z,19.50
2019-04-06T13:01:50.058Z,18.80
2019-04-06T13:04:47.428Z,18.20
2019-04-06T13:07:48.229Z,18.10
2019-04-06T13:10:28.040Z,18.40
2019-04-06T13:13:19.330Z,18.70
2019-04-06T13:15:57.281Z,18.90
2019-04-06T13:18:45.014Z,19.00
2019-04-06T13:21:33.232Z,19.10
2019-04-06T13:24:37.210Z,19.40
2019-04-06T13:27:25.409Z,19.90
2019-04-06T13:30:22.535Z,19.40
2019-04-06T13:33:09.255Z,19.10
2019-04-06T13:35:57.117Z,19.20
2019-04-06T13:38:42.315Z,19.30
2019-04-06T13:41:36.360Z,19.60
2019-04-06T13:44:28.314Z,19.70
2019-04-06T13:47:31.980Z,20.00
2019-04-06T13:50:26.429Z,20.00
2019-04-06T13:53:17.324Z,20.30
2019-04-06T13:56:17.464Z,20.00
2019-04-06T13:59:15.111Z,19.90
2019-04-06T14:01:53.332Z,20.10
2019-04-06T14:04:41.294Z,20.10
2019-04-06T14:07:35.805Z,20.20
2019-04-06T14:10:17.869Z,20.00
2019-04-06T14:12:59.914Z,19.50
2019-04-06T14:16:06.369Z,19.50
2019-04-06T14:18:54.522Z,19.70
2019-04-06T14:21:39.753Z,20.00
2019-04-06T14:24:25.245Z,20.20
2019-04-06T14:27:19.454Z,20.00
2019-04-06T14:30:08.065Z,19.90
2019-04-06T14:33:14.108Z,20.10
2019-04-06T14:36:01.350Z,20.00
2019-04-06T14:38:53.133Z,19.90
2019-04-06T14:41:41.760Z,19.90
2019-04-06T14:44:21.158Z,19.80
2019-04-06T14:47:00.799Z,19.70
2019-04-06T14:49:58.129Z,19.70
2019-04-06T14:53:01.514Z,19.90
2019-04-06T14:55:53.628Z,19.70
2019-04-06T14:58:42.744Z,19.70
2019-04-06T15:01:18.409Z,19.60
2019-04-06T15:04:12.509Z,19.60
2019-04-06T15:06:56.468Z,19.40
2019-04-06T15:09:45.536Z,19.50
2019-04-06T15:12:27.859Z,19.50
2019-04-06T15:15:22.048Z,19.40
2019-04-06T15:18:08.550Z,19.40
2019-04-06T15:20:52.936Z,19.60
2019-04-06T15:23:56.205Z,19.40
2019-04-06T15:26:43.633Z,19.20
2019-04-06T15:29:34.854Z,19.00
2019-04-06T15:32:22.885Z,19.10
2019-04-06T15:35:04.074Z,19.10
2019-04-06T15:37:51.058Z,18.90
2019-04-06T15:40:42.032Z,18.80
2019-04-06T15:43:30.461Z,18.80
2019-04-06T15:46:05.597Z,18.60
2019-04-06T15:48:49.114Z,18.40
2019-04-06T15:51:37.246Z,18.20
2019-04-06T15:54:24.700Z,18.10
2019-04-06T15:57:03.424Z,18.00
2019-04-06T16:00:00.911Z,18.00
2019-04-06T16:02:51.182Z,17.90
2019-04-06T16:05:41.688Z,17.90
2019-04-06T16:08:32.601Z,17.80
2019-04-06T16:11:39.260Z,17.70
2019-04-06T16:14:22.714Z,17.70
2019-04-06T16:16:58.273Z,17.60
2019-04-06T16:19:45.088Z,17.60
2019-04-06T16:22:19.681Z,17.50
2019-04-06T16:24:53.603Z,17.40
2019-04-06T16:27:31.317Z,17.40
2019-04-06T16:30:19.660Z,17.30
2019-04-06T16:32:57.924Z,17.30
2019-04-06T16:35:46.917Z,17.30
2019-04-06T16:38:41.015Z,17.20
2019-04-06T16:41:28.640Z,17.10
2019-04-06T16:44:17.650Z,17.10
2019-04-06T16:47:24.057Z,17.00
2019-04-06T16:50:11.376Z,16.90
2019-04-06T16:52:58.573Z,16.80
2019-04-06T16:55:40.989Z,16.70
2019-04-06T16:58:29.460Z,16.60
2019-04-06T17:01:26.504Z,16.50
2019-04-06T17:04:10.425Z,16.40
2019-04-06T17:07:10.520Z,16.30
2019-04-06T17:10:07.964Z,16.20
2019-04-06T17:12:59.445Z,16.10
2019-04-06T17:15:52.300Z,16.00
2019-04-06T17:18:36.493Z,16.00
2019-04-06T17:21:30.679Z,15.80
2019-04-06T17:24:13.911Z,15.80
2019-04-06T17:27:15.097Z,15.70
2019-04-06T17:30:12.506Z,15.60
2019-04-06T17:32:59.345Z,15.50
2019-04-06T17:35:46.265Z,15.40
2019-04-06T17:38:38.415Z,15.30
2019-04-06T17:41:20.978Z,15.30
2019-04-06T17:44:11.680Z,15.20
2019-04-06T17:47:08.565Z,15.10
2019-04-06T17:50:03.152Z,15.00
2019-04-06T17:52:38.479Z,15.00
2019-04-06T17:55:26.836Z,14.90
2019-04-06T17:58:14.165Z,14.80
2019-04-06T18:01:02.256Z,14.70
2019-04-06T18:04:06.107Z,14.70
2019-04-06T18:06:54.227Z,14.60
2019-04-06T18:09:34.363Z,14.60
2019-04-06T18:12:19.987Z,14.50
2019-04-06T18:14:49.444Z,14.40
2019-04-06T18:17:19.014Z,14.30
2019-04-06T18:19:48.299Z,14.20
2019-04-06T18:22:18.147Z,14.20
2019-04-06T18:24:47.811Z,14.10
2019-04-06T18:27:17.559Z,14.10
2019-04-06T18:29:46.954Z,14.00
2019-04-06T18:32:35.354Z,14.00
2019-04-06T18:35:04.790Z,13.90
2019-04-06T18:37:42.318Z,13.90
2019-04-06T18:40:22.953Z,13.80
2019-04-06T18:42:52.925Z,13.70
2019-04-06T18:45:22.126Z,13.70
2019-04-06T18:47:51.967Z,13.70
2019-04-06T18:50:28.525Z,13.60
2019-04-06T18:52:52.076Z,13.60
2019-04-06T18:55:22.198Z,13.50
2019-04-06T18:57:51.574Z,13.50
2019-04-06T19:00:21.079Z,13.40
2019-04-06T19:02:49.948Z,13.40
2019-04-06T19:05:19.417Z,13.30
2019-04-06T19:07:49.274Z,13.20
2019-04-06T19:10:18.681Z,13.20
2019-04-06T19:12:47.786Z,13.20
2019-04-06T19:15:17.390Z,13.10
2019-04-06T19:17:46.259Z,13.10
2019-04-06T19:20:15.933Z,13.00
2019-04-06T19:22:44.852Z,13.00
2019-04-06T19:25:14.461Z,13.00
2019-04-06T19:27:44.350Z,12.90
2019-04-06T19:30:15.468Z,12.90
2019-04-06T19:32:44.782Z,12.80
2019-04-06T19:35:14.391Z,12.70
2019-04-06T19:37:43.936Z,12.60
2019-04-06T19:40:13.449Z,12.50
2019-04-06T19:42:42.670Z,12.50
2019-04-06T19:45:13.392Z,12.40
2019-04-06T19:47:43.595Z,12.30
2019-04-06T19:50:12.965Z,12.20
2019-04-06T19:52:42.602Z,12.10
2019-04-06T19:55:12.680Z,12.00
2019-04-06T19:57:42.714Z,12.00
2019-04-06T20:00:12.976Z,12.00
2019-04-06T20:02:42.074Z,11.90
2019-04-06T20:05:11.779Z,11.90
2019-04-06T20:07:41.003Z,11.90
2019-04-06T20:10:10.319Z,11.80
2019-04-06T20:12:39.500Z,11.80
2019-04-06T20:15:08.978Z,11.80
2019-04-06T20:17:39.079Z,11.70
2019-04-06T20:20:08.349Z,11.60
2019-04-06T20:22:38.210Z,11.60
2019-04-06T20:25:07.509Z,11.50
2019-04-06T20:27:36.963Z,11.50
2019-04-06T20:30:07.151Z,11.50
2019-04-06T20:32:36.702Z,11.60
2019-04-06T20:35:06.517Z,11.60
2019-04-06T20:37:36.017Z,11.70
2019-04-06T20:40:06.269Z,11.70
2019-04-06T20:42:35.740Z,11.70
2019-04-06T20:45:05.169Z,11.80
2019-04-06T20:47:34.456Z,11.80
2019-04-06T20:50:03.731Z,11.80
2019-04-06T20:52:34.290Z,11.70
2019-04-06T20:55:04.209Z,11.70
2019-04-06T20:57:33.735Z,11.60
2019-04-06T21:00:02.806Z,11.60
2019-04-06T21:02:31.784Z,11.50
2019-04-06T21:05:02.127Z,11.50
2019-04-06T21:07:32.399Z,11.40
2019-04-06T21:10:01.413Z,11.40
2019-04-06T21:12:30.253Z,11.40
2019-04-06T21:14:59.812Z,11.30
2019-04-06T21:17:29.122Z,11.30
2019-04-06T21:19:59.264Z,11.20
2019-04-06T21:22:29.367Z,11.20
2019-04-06T21:24:59.306Z,11.20
2019-04-06T21:27:28.858Z,11.10
2019-04-06T21:29:57.769Z,11.10
2019-04-06T21:32:27.086Z,11.00
2019-04-06T21:34:56.296Z,11.00
2019-04-06T21:37:25.512Z,10.90
2019-04-06T21:39:54.339Z,10.90
2019-04-06T21:42:23.311Z,10.80
2019-04-06T21:44:52.446Z,10.70
2019-04-06T21:47:22.009Z,10.60
2019-04-06T21:49:51.497Z,10.60
2019-04-06T21:52:20.864Z,10.50
2019-04-06T21:54:50.433Z,10.40
2019-04-06T21:57:19.806Z,10.40
2019-04-06T21:59:49.755Z,10.40
2019-04-06T22:02:19.300Z,10.30
2019-04-06T22:04:48.506Z,10.20
2019-04-06T22:07:18.743Z,10.10
2019-04-06T22:09:47.839Z,10.10
2019-04-06T22:12:17.451Z,10.00
2019-04-06T22:14:47.377Z,9.90
2019-04-06T22:17:16.815Z,9.80
2019-04-06T22:19:46.395Z,9.80
2019-04-06T22:22:15.595Z,9.80
2019-04-06T22:24:45.083Z,9.80
2019-04-06T22:27:14.622Z,9.80
2019-04-06T22:29:44.461Z,9.80
2019-04-06T22:32:13.380Z,9.80
2019-04-06T22:34:43.209Z,9.80
2019-04-06T22:37:12.004Z,9.80
2019-04-06T22:39:40.988Z,9.70
2019-04-06T22:42:10.103Z,9.70
2019-04-06T22:44:40.056Z,9.70
2019-04-06T22:47:09.389Z,9.70
2019-04-06T22:49:38.771Z,9.60
2019-04-06T22:52:08.173Z,9.60
2019-04-06T22:54:37.538Z,9.60
2019-04-06T22:57:06.813Z,9.60
2019-04-06T22:59:36.238Z,9.60
2019-04-06T23:02:05.527Z,9.50
2019-04-06T23:04:49.507Z,9.50
2019-04-06T23:07:19.026Z,9.50
2019-04-06T23:09:48.344Z,9.40
2019-04-06T23:12:18.409Z,9.40
2019-04-06T23:14:47.814Z,9.40
2019-04-06T23:17:16.959Z,9.40
2019-04-06T23:19:46.917Z,9.40
2019-04-06T23:22:15.969Z,9.40
2019-04-06T23:24:44.860Z,9.40
2019-04-06T23:27:14.713Z,9.40
2019-04-06T23:29:44.036Z,9.40
2019-04-06T23:32:13.530Z,9.50
2019-04-06T23:34:43.458Z,9.50
2019-04-06T23:37:12.856Z,9.50
2019-04-06T23:39:42.254Z,9.50
2019-04-06T23:42:12.666Z,9.50
2019-04-06T23:44:42.098Z,9.40
2019-04-06T23:47:11.279Z,9.40
2019-04-06T23:49:40.746Z,9.40
2019-04-06T23:52:09.577Z,9.30
2019-04-06T23:54:39.907Z,9.30
2019-04-06T23:57:09.258Z,9.20
2019-04-06T23:59:38.622Z,9.20
